sensor_id;sensor_type;location;lat;lon;timestamp;temperature;humidity
27795;DHT22;15176;50.844;4.412;2023-04-25T00:01:32;11.90;99.90
27795;DHT22;15176;50.844;4.412;2023-04-25T00:04:01;11.90;99.90
27795;DHT22;15176;50.844;4.412;2023-04-25T00:06:28;11.90;99.90
27795;DHT22;15176;50.844;4.412;2023-04-25T00:08:53;11.90;99.90
27795;DHT22;15176;50.844;4.412;2023-04-25T00:11:20;12.10;99.90
27795;DHT22;15176;50.844;4.412;2023-04-25T00:13:46;12.00;99.90
27795;DHT22;15176;50.844;4.412;2023-04-25T00:16:13;11.80;99.90
27795;DHT22;15176;50.844;4.412;2023-04-25T00:18:41;11.60;99.90
27795;DHT22;15176;50.844;4.412;2023-04-25T00:21:07;11.60;99.90
27795;DHT22;15176;50.844;4.412;2023-04-25T00:23:33;11.70;99.90
27795;DHT22;15176;50.844;4.412;2023-04-25T00:26:01;11.90;99.90
27795;DHT22;15176;50.844;4.412;2023-04-25T00:28:28;11.90;99.90
27795;DHT22;15176;50.844;4.412;2023-04-25T00:30:54;11.90;99.90
27795;DHT22;15176;50.844;4.412;2023-04-25T00:33:19;12.00;99.90
27795;DHT22;15176;50.844;4.412;2023-04-25T00:35:45;12.10;99.90
27795;DHT22;15176;50.844;4.412;2023-04-25T00:38:11;11.90;99.90
27795;DHT22;15176;50.844;4.412;2023-04-25T00:40:37;11.80;99.90
27795;DHT22;15176;50.844;4.412;2023-04-25T00:43:02;11.80;99.90
27795;DHT22;15176;50.844;4.412;2023-04-25T00:45:29;11.90;99.90
27795;DHT22;15176;50.844;4.412;2023-04-25T00:47:55;11.80;99.90
27795;DHT22;15176;50.844;4.412;2023-04-25T00:50:22;12.00;99.90
27795;DHT22;15176;50.844;4.412;2023-04-25T00:52:47;12.00;99.90
27795;DHT22;15176;50.844;4.412;2023-04-25T00:55:13;11.90;99.90
27795;DHT22;15176;50.844;4.412;2023-04-25T00:57:41;11.90;99.90
27795;DHT22;15176;50.844;4.412;2023-04-25T01:00:08;12.00;99.90
27795;DHT22;15176;50.844;4.412;2023-04-25T01:02:35;12.00;99.90
27795;DHT22;15176;50.844;4.412;2023-04-25T01:05:02;12.00;99.90
27795;DHT22;15176;50.844;4.412;2023-04-25T01:07:28;11.90;99.90
27795;DHT22;15176;50.844;4.412;2023-04-25T01:09:54;11.90;99.90
27795;DHT22;15176;50.844;4.412;2023-04-25T01:12:20;11.90;99.90
27795;DHT22;15176;50.844;4.412;2023-04-25T01:14:46;11.60;99.90
27795;DHT22;15176;50.844;4.412;2023-04-25T01:17:12;11.40;99.90
27795;DHT22;15176;50.844;4.412;2023-04-25T01:19:38;11.30;99.90
27795;DHT22;15176;50.844;4.412;2023-04-25T01:22:04;11.20;99.90
27795;DHT22;15176;50.844;4.412;2023-04-25T01:24:32;11.30;99.90
27795;DHT22;15176;50.844;4.412;2023-04-25T01:27:00;11.70;99.90
27795;DHT22;15176;50.844;4.412;2023-04-25T01:29:27;11.80;99.90
27795;DHT22;15176;50.844;4.412;2023-04-25T01:31:54;11.70;99.90
27795;DHT22;15176;50.844;4.412;2023-04-25T01:34:20;11.90;99.90
27795;DHT22;15176;50.844;4.412;2023-04-25T01:36:49;11.90;99.90
27795;DHT22;15176;50.844;4.412;2023-04-25T01:39:15;11.80;99.90
27795;DHT22;15176;50.844;4.412;2023-04-25T01:41:41;11.60;99.90
27795;DHT22;15176;50.844;4.412;2023-04-25T01:44:10;11.70;99.90
27795;DHT22;15176;50.844;4.412;2023-04-25T01:46:35;11.60;99.90
27795;DHT22;15176;50.844;4.412;2023-04-25T01:49:02;11.70;99.90
27795;DHT22;15176;50.844;4.412;2023-04-25T01:51:28;11.50;99.90
27795;DHT22;15176;50.844;4.412;2023-04-25T01:53:54;11.40;99.90
27795;DHT22;15176;50.844;4.412;2023-04-25T01:56:20;11.20;99.90
27795;DHT22;15176;50.844;4.412;2023-04-25T01:58:46;11.20;99.90
27795;DHT22;15176;50.844;4.412;2023-04-25T02:01:12;11.10;99.90
27795;DHT22;15176;50.844;4.412;2023-04-25T02:03:38;11.10;99.90
27795;DHT22;15176;50.844;4.412;2023-04-25T02:06:03;11.10;99.90
27795;DHT22;15176;50.844;4.412;2023-04-25T02:08:29;11.20;99.90
27795;DHT22;15176;50.844;4.412;2023-04-25T02:10:55;11.20;99.90
27795;DHT22;15176;50.844;4.412;2023-04-25T02:13:21;11.20;99.90
27795;DHT22;15176;50.844;4.412;2023-04-25T02:15:48;11.20;99.90
27795;DHT22;15176;50.844;4.412;2023-04-25T02:18:14;11.40;99.90
27795;DHT22;15176;50.844;4.412;2023-04-25T02:20:41;11.40;99.90
27795;DHT22;15176;50.844;4.412;2023-04-25T02:23:07;11.20;99.90
27795;DHT22;15176;50.844;4.412;2023-04-25T02:25:33;11.10;99.90
27795;DHT22;15176;50.844;4.412;2023-04-25T02:27:59;11.20;99.90
27795;DHT22;15176;50.844;4.412;2023-04-25T02:30:24;11.40;99.90
27795;DHT22;15176;50.844;4.412;2023-04-25T02:32:50;11.40;99.90
27795;DHT22;15176;50.844;4.412;2023-04-25T02:35:16;11.30;99.90
27795;DHT22;15176;50.844;4.412;2023-04-25T02:37:42;11.50;99.90
27795;DHT22;15176;50.844;4.412;2023-04-25T02:40:09;11.40;99.90
27795;DHT22;15176;50.844;4.412;2023-04-25T02:42:35;11.40;99.90
27795;DHT22;15176;50.844;4.412;2023-04-25T02:45:01;11.40;99.90
27795;DHT22;15176;50.844;4.412;2023-04-25T02:47:27;11.30;99.90
27795;DHT22;15176;50.844;4.412;2023-04-25T02:49:53;11.20;99.90
27795;DHT22;15176;50.844;4.412;2023-04-25T02:52:19;11.30;99.90
27795;DHT22;15176;50.844;4.412;2023-04-25T02:54:45;11.40;99.90
27795;DHT22;15176;50.844;4.412;2023-04-25T02:57:10;11.40;99.90
27795;DHT22;15176;50.844;4.412;2023-04-25T02:59:36;11.30;99.90
27795;DHT22;15176;50.844;4.412;2023-04-25T03:02:02;11.30;99.90
27795;DHT22;15176;50.844;4.412;2023-04-25T03:04:27;11.30;99.90
27795;DHT22;15176;50.844;4.412;2023-04-25T03:06:53;11.40;99.90
27795;DHT22;15176;50.844;4.412;2023-04-25T03:09:19;11.40;99.90
27795;DHT22;15176;50.844;4.412;2023-04-25T03:11:45;11.20;99.90
27795;DHT22;15176;50.844;4.412;2023-04-25T03:14:11;11.10;99.90
27795;DHT22;15176;50.844;4.412;2023-04-25T03:16:37;11.20;99.90
27795;DHT22;15176;50.844;4.412;2023-04-25T03:19:04;11.10;99.90
27795;DHT22;15176;50.844;4.412;2023-04-25T03:21:30;11.00;99.90
27795;DHT22;15176;50.844;4.412;2023-04-25T03:23:58;11.10;99.90
27795;DHT22;15176;50.844;4.412;2023-04-25T03:26:23;11.20;99.90
27795;DHT22;15176;50.844;4.412;2023-04-25T03:28:49;11.40;99.90
27795;DHT22;15176;50.844;4.412;2023-04-25T03:31:15;11.20;99.90
27795;DHT22;15176;50.844;4.412;2023-04-25T03:33:41;11.00;99.90
27795;DHT22;15176;50.844;4.412;2023-04-25T03:36:07;11.00;99.90
27795;DHT22;15176;50.844;4.412;2023-04-25T03:38:32;11.00;99.90
27795;DHT22;15176;50.844;4.412;2023-04-25T03:40:58;11.00;99.90
27795;DHT22;15176;50.844;4.412;2023-04-25T03:43:24;11.00;99.90
27795;DHT22;15176;50.844;4.412;2023-04-25T03:45:50;10.90;99.90
27795;DHT22;15176;50.844;4.412;2023-04-25T03:48:16;10.80;99.90
27795;DHT22;15176;50.844;4.412;2023-04-25T03:50:42;10.60;99.90
27795;DHT22;15176;50.844;4.412;2023-04-25T03:53:07;10.50;99.90
27795;DHT22;15176;50.844;4.412;2023-04-25T03:55:33;10.50;99.90
27795;DHT22;15176;50.844;4.412;2023-04-25T03:57:59;10.70;99.90
27795;DHT22;15176;50.844;4.412;2023-04-25T04:00:25;10.60;99.90
27795;DHT22;15176;50.844;4.412;2023-04-25T04:02:52;10.60;99.90
27795;DHT22;15176;50.844;4.412;2023-04-25T04:05:19;10.70;99.90
27795;DHT22;15176;50.844;4.412;2023-04-25T04:07:45;10.70;99.90
27795;DHT22;15176;50.844;4.412;2023-04-25T04:10:11;10.60;99.90
27795;DHT22;15176;50.844;4.412;2023-04-25T04:12:37;10.80;99.90
27795;DHT22;15176;50.844;4.412;2023-04-25T04:15:04;10.90;99.90
27795;DHT22;15176;50.844;4.412;2023-04-25T04:17:30;10.90;99.90
27795;DHT22;15176;50.844;4.412;2023-04-25T04:19:56;10.90;99.90
27795;DHT22;15176;50.844;4.412;2023-04-25T04:22:22;11.00;99.90
27795;DHT22;15176;50.844;4.412;2023-04-25T04:24:48;10.90;99.90
27795;DHT22;15176;50.844;4.412;2023-04-25T04:27:18;11.10;99.90
27795;DHT22;15176;50.844;4.412;2023-04-25T04:29:45;11.30;99.90
27795;DHT22;15176;50.844;4.412;2023-04-25T04:32:13;11.40;99.90
27795;DHT22;15176;50.844;4.412;2023-04-25T04:34:39;11.50;99.90
27795;DHT22;15176;50.844;4.412;2023-04-25T04:37:06;11.70;99.90
27795;DHT22;15176;50.844;4.412;2023-04-25T04:39:33;11.60;99.90
27795;DHT22;15176;50.844;4.412;2023-04-25T04:41:59;11.80;99.90
27795;DHT22;15176;50.844;4.412;2023-04-25T04:44:27;11.80;99.90
27795;DHT22;15176;50.844;4.412;2023-04-25T04:46:53;11.80;99.90
27795;DHT22;15176;50.844;4.412;2023-04-25T04:49:19;11.70;99.90
27795;DHT22;15176;50.844;4.412;2023-04-25T04:51:46;11.70;99.90
27795;DHT22;15176;50.844;4.412;2023-04-25T04:54:13;11.60;99.90
27795;DHT22;15176;50.844;4.412;2023-04-25T04:56:38;11.70;99.90
27795;DHT22;15176;50.844;4.412;2023-04-25T04:59:04;11.80;99.90
27795;DHT22;15176;50.844;4.412;2023-04-25T05:01:30;11.90;99.90
27795;DHT22;15176;50.844;4.412;2023-04-25T05:03:56;11.90;99.90
27795;DHT22;15176;50.844;4.412;2023-04-25T05:06:26;11.90;99.90
27795;DHT22;15176;50.844;4.412;2023-04-25T05:08:52;11.80;99.90
27795;DHT22;15176;50.844;4.412;2023-04-25T05:11:19;11.60;99.90
27795;DHT22;15176;50.844;4.412;2023-04-25T05:13:44;11.40;99.90
27795;DHT22;15176;50.844;4.412;2023-04-25T05:16:11;11.10;99.90
27795;DHT22;15176;50.844;4.412;2023-04-25T05:18:37;10.80;99.90
27795;DHT22;15176;50.844;4.412;2023-04-25T05:21:03;11.00;99.90
27795;DHT22;15176;50.844;4.412;2023-04-25T05:23:29;11.30;99.90
27795;DHT22;15176;50.844;4.412;2023-04-25T05:25:56;11.20;99.90
27795;DHT22;15176;50.844;4.412;2023-04-25T05:28:21;11.30;99.90
27795;DHT22;15176;50.844;4.412;2023-04-25T05:30:49;11.50;99.90
27795;DHT22;15176;50.844;4.412;2023-04-25T05:33:15;11.50;99.90
27795;DHT22;15176;50.844;4.412;2023-04-25T05:35:41;11.20;99.90
27795;DHT22;15176;50.844;4.412;2023-04-25T05:38:10;11.10;99.90
27795;DHT22;15176;50.844;4.412;2023-04-25T05:40:36;11.30;99.90
27795;DHT22;15176;50.844;4.412;2023-04-25T05:43:01;11.50;99.90
27795;DHT22;15176;50.844;4.412;2023-04-25T05:45:27;11.90;99.90
27795;DHT22;15176;50.844;4.412;2023-04-25T05:47:53;12.10;99.90
27795;DHT22;15176;50.844;4.412;2023-04-25T05:50:18;12.00;99.90
27795;DHT22;15176;50.844;4.412;2023-04-25T05:52:44;12.00;99.90
27795;DHT22;15176;50.844;4.412;2023-04-25T05:55:10;12.00;99.90
27795;DHT22;15176;50.844;4.412;2023-04-25T05:57:35;12.20;99.90
27795;DHT22;15176;50.844;4.412;2023-04-25T06:00:01;12.30;99.90
27795;DHT22;15176;50.844;4.412;2023-04-25T06:02:27;12.30;99.90
27795;DHT22;15176;50.844;4.412;2023-04-25T06:04:53;12.10;99.90
27795;DHT22;15176;50.844;4.412;2023-04-25T06:07:19;12.20;99.90
27795;DHT22;15176;50.844;4.412;2023-04-25T06:09:48;12.00;99.90
27795;DHT22;15176;50.844;4.412;2023-04-25T06:12:14;12.10;99.90
27795;DHT22;15176;50.844;4.412;2023-04-25T06:14:40;12.20;99.90
27795;DHT22;15176;50.844;4.412;2023-04-25T06:17:06;12.30;99.90
27795;DHT22;15176;50.844;4.412;2023-04-25T06:19:34;11.80;99.90
27795;DHT22;15176;50.844;4.412;2023-04-25T06:22:00;11.80;99.90
27795;DHT22;15176;50.844;4.412;2023-04-25T06:24:26;12.00;99.90
27795;DHT22;15176;50.844;4.412;2023-04-25T06:26:53;12.10;99.90
27795;DHT22;15176;50.844;4.412;2023-04-25T06:29:19;12.10;99.90
27795;DHT22;15176;50.844;4.412;2023-04-25T06:31:46;11.90;99.90
27795;DHT22;15176;50.844;4.412;2023-04-25T06:34:12;11.80;99.90
27795;DHT22;15176;50.844;4.412;2023-04-25T06:36:38;11.90;99.90
27795;DHT22;15176;50.844;4.412;2023-04-25T06:39:05;11.90;99.90
27795;DHT22;15176;50.844;4.412;2023-04-25T06:41:32;11.80;99.90
27795;DHT22;15176;50.844;4.412;2023-04-25T06:43:57;11.90;99.90
27795;DHT22;15176;50.844;4.412;2023-04-25T06:46:23;11.90;99.90
27795;DHT22;15176;50.844;4.412;2023-04-25T06:48:49;11.50;99.90
27795;DHT22;15176;50.844;4.412;2023-04-25T06:51:15;11.30;99.90
27795;DHT22;15176;50.844;4.412;2023-04-25T06:53:41;11.50;99.90
27795;DHT22;15176;50.844;4.412;2023-04-25T06:56:06;11.50;99.90
27795;DHT22;15176;50.844;4.412;2023-04-25T06:58:35;11.40;99.90
27795;DHT22;15176;50.844;4.412;2023-04-25T07:01:01;11.50;99.90
27795;DHT22;15176;50.844;4.412;2023-04-25T07:03:28;11.40;99.90
27795;DHT22;15176;50.844;4.412;2023-04-25T07:05:54;11.50;99.90
27795;DHT22;15176;50.844;4.412;2023-04-25T07:08:21;11.30;99.90
27795;DHT22;15176;50.844;4.412;2023-04-25T07:10:47;11.30;99.90
27795;DHT22;15176;50.844;4.412;2023-04-25T07:13:12;11.50;99.90
27795;DHT22;15176;50.844;4.412;2023-04-25T07:15:41;11.60;99.90
27795;DHT22;15176;50.844;4.412;2023-04-25T07:18:07;11.60;99.90
27795;DHT22;15176;50.844;4.412;2023-04-25T07:20:33;11.50;99.90
27795;DHT22;15176;50.844;4.412;2023-04-25T07:22:59;11.40;99.90
27795;DHT22;15176;50.844;4.412;2023-04-25T07:25:24;11.50;99.90
27795;DHT22;15176;50.844;4.412;2023-04-25T07:27:50;11.60;99.90
27795;DHT22;15176;50.844;4.412;2023-04-25T07:30:16;11.40;99.90
27795;DHT22;15176;50.844;4.412;2023-04-25T07:32:41;11.30;99.90
27795;DHT22;15176;50.844;4.412;2023-04-25T07:35:07;11.00;99.90
27795;DHT22;15176;50.844;4.412;2023-04-25T07:37:34;11.00;99.90
27795;DHT22;15176;50.844;4.412;2023-04-25T07:40:00;11.10;99.90
27795;DHT22;15176;50.844;4.412;2023-04-25T07:42:25;11.40;99.90
27795;DHT22;15176;50.844;4.412;2023-04-25T07:44:51;11.70;99.90
27795;DHT22;15176;50.844;4.412;2023-04-25T07:47:17;11.40;99.90
27795;DHT22;15176;50.844;4.412;2023-04-25T07:49:44;11.40;99.90
27795;DHT22;15176;50.844;4.412;2023-04-25T07:52:11;11.60;99.90
27795;DHT22;15176;50.844;4.412;2023-04-25T07:54:37;11.30;99.90
27795;DHT22;15176;50.844;4.412;2023-04-25T07:57:02;11.20;99.90
27795;DHT22;15176;50.844;4.412;2023-04-25T07:59:30;11.10;99.90
27795;DHT22;15176;50.844;4.412;2023-04-25T08:01:55;11.10;99.90
27795;DHT22;15176;50.844;4.412;2023-04-25T08:04:23;11.40;99.90
27795;DHT22;15176;50.844;4.412;2023-04-25T08:06:55;11.90;99.90
27795;DHT22;15176;50.844;4.412;2023-04-25T08:09:22;11.80;99.90
27795;DHT22;15176;50.844;4.412;2023-04-25T08:11:48;11.70;99.90
27795;DHT22;15176;50.844;4.412;2023-04-25T08:14:17;12.00;99.90
27795;DHT22;15176;50.844;4.412;2023-04-25T08:16:46;12.00;99.90
27795;DHT22;15176;50.844;4.412;2023-04-25T08:19:12;12.40;99.90
27795;DHT22;15176;50.844;4.412;2023-04-25T08:21:38;12.40;99.90
27795;DHT22;15176;50.844;4.412;2023-04-25T08:24:04;12.40;99.90
27795;DHT22;15176;50.844;4.412;2023-04-25T08:26:30;12.50;99.90
27795;DHT22;15176;50.844;4.412;2023-04-25T08:28:55;12.70;99.90
27795;DHT22;15176;50.844;4.412;2023-04-25T08:31:21;13.00;99.90
27795;DHT22;15176;50.844;4.412;2023-04-25T08:33:47;13.00;99.90
27795;DHT22;15176;50.844;4.412;2023-04-25T08:36:13;12.90;99.90
27795;DHT22;15176;50.844;4.412;2023-04-25T08:38:38;12.90;99.90
27795;DHT22;15176;50.844;4.412;2023-04-25T08:41:05;12.60;99.90
27795;DHT22;15176;50.844;4.412;2023-04-25T08:43:34;12.80;99.90
27795;DHT22;15176;50.844;4.412;2023-04-25T08:46:00;13.00;99.90
27795;DHT22;15176;50.844;4.412;2023-04-25T08:48:32;13.60;99.90
27795;DHT22;15176;50.844;4.412;2023-04-25T08:50:58;14.50;99.90
27795;DHT22;15176;50.844;4.412;2023-04-25T08:53:30;14.70;99.90
27795;DHT22;15176;50.844;4.412;2023-04-25T08:55:59;14.60;99.90
27795;DHT22;15176;50.844;4.412;2023-04-25T08:58:25;14.50;99.90
27795;DHT22;15176;50.844;4.412;2023-04-25T09:00:52;14.50;99.90
27795;DHT22;15176;50.844;4.412;2023-04-25T09:03:18;14.30;99.90
27795;DHT22;15176;50.844;4.412;2023-04-25T09:05:46;14.10;99.40
27795;DHT22;15176;50.844;4.412;2023-04-25T09:08:12;13.90;99.90
27795;DHT22;15176;50.844;4.412;2023-04-25T09:10:40;13.70;99.90
27795;DHT22;15176;50.844;4.412;2023-04-25T09:13:08;13.80;99.90
27795;DHT22;15176;50.844;4.412;2023-04-25T09:15:47;13.80;99.90
27795;DHT22;15176;50.844;4.412;2023-04-25T09:18:42;13.70;99.90
27795;DHT22;15176;50.844;4.412;2023-04-25T09:21:10;13.50;99.90
27795;DHT22;15176;50.844;4.412;2023-04-25T09:23:41;13.50;99.70
27795;DHT22;15176;50.844;4.412;2023-04-25T09:26:07;13.70;99.40
27795;DHT22;15176;50.844;4.412;2023-04-25T09:28:34;13.70;97.50
27795;DHT22;15176;50.844;4.412;2023-04-25T09:31:01;13.10;98.50
27795;DHT22;15176;50.844;4.412;2023-04-25T09:33:32;13.00;99.40
27795;DHT22;15176;50.844;4.412;2023-04-25T09:36:05;12.70;99.60
27795;DHT22;15176;50.844;4.412;2023-04-25T09:38:39;12.30;99.90
27795;DHT22;15176;50.844;4.412;2023-04-25T09:41:08;12.40;99.90
27795;DHT22;15176;50.844;4.412;2023-04-25T09:43:35;12.50;99.90
27795;DHT22;15176;50.844;4.412;2023-04-25T09:46:01;12.80;99.90
27795;DHT22;15176;50.844;4.412;2023-04-25T09:48:28;13.20;99.90
27795;DHT22;15176;50.844;4.412;2023-04-25T09:51:06;13.70;99.90
27795;DHT22;15176;50.844;4.412;2023-04-25T09:53:34;14.30;99.90
27795;DHT22;15176;50.844;4.412;2023-04-25T09:56:00;14.90;98.80
27795;DHT22;15176;50.844;4.412;2023-04-25T09:58:29;15.00;98.50
27795;DHT22;15176;50.844;4.412;2023-04-25T10:01:01;15.10;97.30
27795;DHT22;15176;50.844;4.412;2023-04-25T10:03:30;15.60;98.00
27795;DHT22;15176;50.844;4.412;2023-04-25T10:05:59;15.80;99.20
27795;DHT22;15176;50.844;4.412;2023-04-25T10:08:27;16.00;95.50
27795;DHT22;15176;50.844;4.412;2023-04-25T10:11:02;16.00;94.70
27795;DHT22;15176;50.844;4.412;2023-04-25T10:13:32;15.90;92.90
27795;DHT22;15176;50.844;4.412;2023-04-25T10:16:07;16.20;92.80
27795;DHT22;15176;50.844;4.412;2023-04-25T10:18:33;16.20;88.70
27795;DHT22;15176;50.844;4.412;2023-04-25T10:21:04;16.40;90.60
27795;DHT22;15176;50.844;4.412;2023-04-25T10:23:31;16.80;84.00
27795;DHT22;15176;50.844;4.412;2023-04-25T10:25:58;16.50;89.50
27795;DHT22;15176;50.844;4.412;2023-04-25T10:29:01;17.00;89.90
27795;DHT22;15176;50.844;4.412;2023-04-25T10:31:27;17.20;81.90
27795;DHT22;15176;50.844;4.412;2023-04-25T10:33:54;17.20;77.00
27795;DHT22;15176;50.844;4.412;2023-04-25T10:36:21;17.40;72.60
27795;DHT22;15176;50.844;4.412;2023-04-25T10:38:49;17.50;73.40
27795;DHT22;15176;50.844;4.412;2023-04-25T10:41:20;17.70;71.50
27795;DHT22;15176;50.844;4.412;2023-04-25T10:43:59;18.00;71.60
27795;DHT22;15176;50.844;4.412;2023-04-25T10:46:29;18.20;67.10
27795;DHT22;15176;50.844;4.412;2023-04-25T10:48:59;17.50;66.70
27795;DHT22;15176;50.844;4.412;2023-04-25T10:51:27;17.10;62.40
27795;DHT22;15176;50.844;4.412;2023-04-25T10:58:47;16.60;67.50
27795;DHT22;15176;50.844;4.412;2023-04-25T11:01:19;16.30;67.20
27795;DHT22;15176;50.844;4.412;2023-04-25T11:03:45;16.10;72.50
27795;DHT22;15176;50.844;4.412;2023-04-25T11:09:10;16.20;75.70
27795;DHT22;15176;50.844;4.412;2023-04-25T11:11:39;16.00;74.80
27795;DHT22;15176;50.844;4.412;2023-04-25T11:14:04;16.00;75.70
27795;DHT22;15176;50.844;4.412;2023-04-25T11:16:30;15.40;80.40
27795;DHT22;15176;50.844;4.412;2023-04-25T11:18:57;15.30;86.90
27795;DHT22;15176;50.844;4.412;2023-04-25T11:21:24;14.50;90.80
27795;DHT22;15176;50.844;4.412;2023-04-25T11:23:54;14.20;93.40
27795;DHT22;15176;50.844;4.412;2023-04-25T11:26:23;13.80;93.40
27795;DHT22;15176;50.844;4.412;2023-04-25T11:28:50;14.00;95.00
27795;DHT22;15176;50.844;4.412;2023-04-25T11:31:15;13.50;97.50
27795;DHT22;15176;50.844;4.412;2023-04-25T11:33:41;13.90;97.10
27795;DHT22;15176;50.844;4.412;2023-04-25T11:36:08;14.20;95.00
27795;DHT22;15176;50.844;4.412;2023-04-25T11:38:34;14.60;94.90
27795;DHT22;15176;50.844;4.412;2023-04-25T11:41:00;14.60;97.40
27795;DHT22;15176;50.844;4.412;2023-04-25T11:43:26;14.80;96.40
27795;DHT22;15176;50.844;4.412;2023-04-25T11:45:52;14.80;96.20
27795;DHT22;15176;50.844;4.412;2023-04-25T11:48:18;14.50;96.60
27795;DHT22;15176;50.844;4.412;2023-04-25T11:50:45;14.40;96.50
27795;DHT22;15176;50.844;4.412;2023-04-25T11:53:11;14.40;95.30
27795;DHT22;15176;50.844;4.412;2023-04-25T11:55:37;14.80;94.50
27795;DHT22;15176;50.844;4.412;2023-04-25T11:58:04;15.20;91.30
27795;DHT22;15176;50.844;4.412;2023-04-25T12:00:30;15.10;91.40
27795;DHT22;15176;50.844;4.412;2023-04-25T12:02:57;15.50;87.90
27795;DHT22;15176;50.844;4.412;2023-04-25T12:05:30;15.70;85.60
27795;DHT22;15176;50.844;4.412;2023-04-25T12:08:18;15.60;83.30
27795;DHT22;15176;50.844;4.412;2023-04-25T12:10:47;15.90;80.20
27795;DHT22;15176;50.844;4.412;2023-04-25T12:13:21;16.00;77.00
27795;DHT22;15176;50.844;4.412;2023-04-25T12:15:47;16.10;79.50
27795;DHT22;15176;50.844;4.412;2023-04-25T12:18:13;16.20;78.10
27795;DHT22;15176;50.844;4.412;2023-04-25T12:20:38;16.00;81.70
27795;DHT22;15176;50.844;4.412;2023-04-25T12:23:07;15.50;81.30
27795;DHT22;15176;50.844;4.412;2023-04-25T12:25:44;15.80;82.00
27795;DHT22;15176;50.844;4.412;2023-04-25T12:31:06;15.10;74.20
27795;DHT22;15176;50.844;4.412;2023-04-25T12:33:33;15.00;74.80
27795;DHT22;15176;50.844;4.412;2023-04-25T12:36:00;14.90;78.10
27795;DHT22;15176;50.844;4.412;2023-04-25T12:38:30;14.80;75.50
27795;DHT22;15176;50.844;4.412;2023-04-25T12:40:57;14.80;73.70
27795;DHT22;15176;50.844;4.412;2023-04-25T12:43:24;15.30;70.90
27795;DHT22;15176;50.844;4.412;2023-04-25T12:45:54;15.20;67.70
27795;DHT22;15176;50.844;4.412;2023-04-25T12:48:20;14.90;69.70
27795;DHT22;15176;50.844;4.412;2023-04-25T12:50:47;15.50;72.30
27795;DHT22;15176;50.844;4.412;2023-04-25T12:53:22;16.00;71.30
27795;DHT22;15176;50.844;4.412;2023-04-25T12:55:49;16.50;70.50
27795;DHT22;15176;50.844;4.412;2023-04-25T12:58:17;16.50;68.70
27795;DHT22;15176;50.844;4.412;2023-04-25T13:00:46;16.30;67.40
27795;DHT22;15176;50.844;4.412;2023-04-25T13:03:12;15.40;70.70
27795;DHT22;15176;50.844;4.412;2023-04-25T13:05:38;15.00;72.20
27795;DHT22;15176;50.844;4.412;2023-04-25T13:08:05;15.00;76.70
27795;DHT22;15176;50.844;4.412;2023-04-25T13:10:31;15.00;82.20
27795;DHT22;15176;50.844;4.412;2023-04-25T13:12:59;14.90;82.10
27795;DHT22;15176;50.844;4.412;2023-04-25T13:15:25;14.80;84.10
27795;DHT22;15176;50.844;4.412;2023-04-25T13:17:51;14.70;86.30
27795;DHT22;15176;50.844;4.412;2023-04-25T13:20:17;14.80;85.20
27795;DHT22;15176;50.844;4.412;2023-04-25T13:22:44;15.00;81.60
27795;DHT22;15176;50.844;4.412;2023-04-25T13:25:14;15.00;81.60
27795;DHT22;15176;50.844;4.412;2023-04-25T13:27:40;14.90;80.80
27795;DHT22;15176;50.844;4.412;2023-04-25T13:30:07;15.00;81.10
27795;DHT22;15176;50.844;4.412;2023-04-25T13:32:37;15.30;81.80
27795;DHT22;15176;50.844;4.412;2023-04-25T13:35:10;15.50;79.00
27795;DHT22;15176;50.844;4.412;2023-04-25T13:37:36;16.20;76.90
27795;DHT22;15176;50.844;4.412;2023-04-25T13:40:05;16.20;72.20
27795;DHT22;15176;50.844;4.412;2023-04-25T13:42:32;16.20;72.10
27795;DHT22;15176;50.844;4.412;2023-04-25T13:44:57;16.30;71.80
27795;DHT22;15176;50.844;4.412;2023-04-25T13:47:23;16.20;70.60
27795;DHT22;15176;50.844;4.412;2023-04-25T13:49:50;16.20;66.10
27795;DHT22;15176;50.844;4.412;2023-04-25T13:52:15;15.90;62.50
27795;DHT22;15176;50.844;4.412;2023-04-25T13:54:41;16.00;63.50
27795;DHT22;15176;50.844;4.412;2023-04-25T13:57:07;15.90;63.10
27795;DHT22;15176;50.844;4.412;2023-04-25T13:59:34;15.90;68.90
27795;DHT22;15176;50.844;4.412;2023-04-25T14:02:00;16.00;69.80
27795;DHT22;15176;50.844;4.412;2023-04-25T14:04:27;15.70;74.50
27795;DHT22;15176;50.844;4.412;2023-04-25T14:06:53;15.50;76.00
27795;DHT22;15176;50.844;4.412;2023-04-25T14:09:19;15.80;75.40
27795;DHT22;15176;50.844;4.412;2023-04-25T14:11:48;15.90;79.20
27795;DHT22;15176;50.844;4.412;2023-04-25T14:14:13;15.60;79.40
27795;DHT22;15176;50.844;4.412;2023-04-25T14:16:41;15.80;77.60
27795;DHT22;15176;50.844;4.412;2023-04-25T14:19:07;15.70;78.00
27795;DHT22;15176;50.844;4.412;2023-04-25T14:21:33;15.70;75.70
27795;DHT22;15176;50.844;4.412;2023-04-25T14:23:58;16.00;74.70
27795;DHT22;15176;50.844;4.412;2023-04-25T14:26:24;16.20;68.10
27795;DHT22;15176;50.844;4.412;2023-04-25T14:28:51;16.30;68.70
27795;DHT22;15176;50.844;4.412;2023-04-25T14:31:17;16.30;70.80
27795;DHT22;15176;50.844;4.412;2023-04-25T14:33:43;16.50;71.00
27795;DHT22;15176;50.844;4.412;2023-04-25T14:36:11;16.30;66.60
27795;DHT22;15176;50.844;4.412;2023-04-25T14:38:37;16.60;69.40
27795;DHT22;15176;50.844;4.412;2023-04-25T14:41:07;16.60;67.00
27795;DHT22;15176;50.844;4.412;2023-04-25T14:43:32;16.10;63.80
27795;DHT22;15176;50.844;4.412;2023-04-25T14:45:58;16.10;69.00
27795;DHT22;15176;50.844;4.412;2023-04-25T14:48:24;16.50;66.20
27795;DHT22;15176;50.844;4.412;2023-04-25T14:50:53;16.30;64.10
27795;DHT22;15176;50.844;4.412;2023-04-25T14:53:19;16.20;68.40
27795;DHT22;15176;50.844;4.412;2023-04-25T14:55:45;15.80;69.70
27795;DHT22;15176;50.844;4.412;2023-04-25T14:58:11;15.90;70.50
27795;DHT22;15176;50.844;4.412;2023-04-25T15:00:37;16.10;69.90
27795;DHT22;15176;50.844;4.412;2023-04-25T15:03:04;15.90;69.80
27795;DHT22;15176;50.844;4.412;2023-04-25T15:05:29;15.90;69.30
27795;DHT22;15176;50.844;4.412;2023-04-25T15:07:55;16.50;69.60
27795;DHT22;15176;50.844;4.412;2023-04-25T15:10:22;16.60;69.40
27795;DHT22;15176;50.844;4.412;2023-04-25T15:12:48;15.70;66.00
27795;DHT22;15176;50.844;4.412;2023-04-25T15:15:14;15.60;67.00
27795;DHT22;15176;50.844;4.412;2023-04-25T15:17:41;15.60;67.80
27795;DHT22;15176;50.844;4.412;2023-04-25T15:20:09;15.80;65.30
27795;DHT22;15176;50.844;4.412;2023-04-25T15:22:36;15.90;65.60
27795;DHT22;15176;50.844;4.412;2023-04-25T15:25:02;15.20;68.50
27795;DHT22;15176;50.844;4.412;2023-04-25T15:27:28;15.30;69.60
27795;DHT22;15176;50.844;4.412;2023-04-25T15:29:56;15.50;68.50
27795;DHT22;15176;50.844;4.412;2023-04-25T15:32:21;15.40;69.50
27795;DHT22;15176;50.844;4.412;2023-04-25T15:34:48;15.30;69.00
27795;DHT22;15176;50.844;4.412;2023-04-25T15:37:16;15.00;70.20
27795;DHT22;15176;50.844;4.412;2023-04-25T15:39:44;15.00;68.90